createdAt,value
2022-08-05T07:37:22.532Z,51.20
2022-08-05T07:52:27.316Z,54.20
2022-08-05T08:07:39.638Z,50.70
2022-08-05T08:23:00.177Z,48.80
2022-08-05T08:38:07.989Z,48.50
2022-08-05T08:53:17.219Z,47.90
2022-08-05T09:08:26.698Z,47.60
2022-08-05T09:23:43.437Z,47.70
2022-08-05T09:39:02.605Z,46.40
2022-08-05T09:54:08.606Z,46.30
2022-08-05T10:09:27.799Z,46.00
2022-08-05T10:24:34.759Z,45.70
2022-08-05T10:39:59.180Z,45.10
2022-08-05T10:55:16.087Z,44.40
2022-08-05T11:10:29.214Z,44.90
2022-08-05T11:26:05.697Z,43.30
2022-08-05T11:41:35.021Z,41.40
2022-08-05T11:56:43.346Z,41.60
2022-08-05T12:11:55.249Z,41.20
2022-08-05T12:26:59.879Z,41.40
2022-08-05T12:42:18.663Z,41.20
2022-08-05T12:57:24.470Z,41.30
2022-08-05T13:12:29.303Z,41.20
2022-08-05T13:27:38.438Z,41.90
2022-08-05T13:42:43.883Z,40.80
2022-08-05T13:57:51.646Z,41.00
2022-08-05T14:12:57.193Z,41.10
2022-08-05T14:28:02.042Z,42.20
2022-08-05T14:43:07.606Z,42.70
2022-08-05T14:58:15.671Z,43.00
2022-08-05T15:13:20.328Z,43.00
2022-08-05T15:28:33.038Z,43.10
2022-08-05T15:43:45.464Z,43.10
2022-08-05T15:58:51.588Z,43.30
2022-08-05T16:13:56.225Z,42.70
2022-08-05T16:29:00.897Z,42.50
2022-08-05T16:44:05.856Z,42.30
2022-08-05T16:59:11.847Z,43.00
2022-08-05T17:14:34.108Z,42.70
2022-08-05T17:29:41.261Z,42.70
2022-08-05T17:44:50.135Z,43.10
2022-08-05T18:00:05.561Z,43.50
2022-08-05T18:15:11.871Z,44.50
2022-08-05T18:30:16.624Z,45.30
2022-08-05T18:45:21.324Z,45.30
2022-08-05T19:00:29.359Z,45.20
2022-08-05T19:15:58.295Z,45.40
2022-08-05T19:31:00.854Z,45.30
2022-08-05T19:46:06.078Z,44.60
